Time;durP1;ratioP1;P1;durP2;ratioP2;P2;SDS_P1;SDS_P2;PMS_P1;PMS_P2;Temp;Humidity;BMP_temperature;BMP_pressure;BME280_temperature;BME280_humidity;BME280_pressure;Samples;Min_cycle;Max_cycle;Signal;HPM_P1;HPM_P2
2022/05/28 00:00:18;;;;;;;0.60;0.60;;;;;;;15.88;82.90;95708.72;4385781;32;20222;-59
2022/05/28 00:02:46;;;;;;;0.30;0.30;;;;;;;15.77;83.59;95704.81;4375910;32;20226;-59
2022/05/28 00:05:12;;;;;;;1.13;0.53;;;;;;;15.70;83.26;95705.28;4391947;32;20242;-59
2022/05/28 00:07:39;;;;;;;0.10;0.10;;;;;;;15.79;83.04;95707.94;4380762;32;20200;-60
2022/05/28 00:10:07;;;;;;;0.13;0.13;;;;;;;15.78;83.66;95709.84;4361426;32;20224;-59
2022/05/28 00:12:32;;;;;;;0.10;0.10;;;;;;;15.84;82.28;95704.31;4387471;32;20184;-59
2022/05/28 00:14:59;;;;;;;0.40;0.40;;;;;;;15.48;83.25;95706.19;4350396;32;20209;-60
2022/05/28 00:17:26;;;;;;;0.47;0.47;;;;;;;15.52;83.58;95708.25;4365673;32;20251;-59
2022/05/28 00:19:52;;;;;;;0.40;0.40;;;;;;;15.57;84.40;95703.56;4349708;32;20188;-59
2022/05/28 00:22:19;;;;;;;0.20;0.20;;;;;;;15.56;83.54;95706.53;4363266;32;20199;-58
2022/05/28 00:24:44;;;;;;;0.30;0.30;;;;;;;15.55;84.37;95696.91;4363367;32;20288;-59
2022/05/28 00:27:11;;;;;;;0.20;0.20;;;;;;;15.52;83.76;95697.53;4365332;32;20184;-58
2022/05/28 00:29:37;;;;;;;0.40;0.27;;;;;;;15.50;82.88;95697.84;4383839;32;20188;-58
2022/05/28 00:32:06;;;;;;;0.40;0.40;;;;;;;15.40;84.03;95692.81;4367055;32;20193;-60
2022/05/28 00:34:32;;;;;;;0.20;0.20;;;;;;;15.45;83.73;95689.97;4355466;32;20204;-59
2022/05/28 00:36:59;;;;;;;0.10;0.10;;;;;;;15.22;83.87;95688.56;4376886;32;20207;-59
2022/05/28 00:39:24;;;;;;;0.40;0.40;;;;;;;15.41;84.30;95695.16;4383539;32;20340;-59
2022/05/28 00:41:51;;;;;;;0.30;0.30;;;;;;;15.39;83.56;95691.22;4378041;32;20192;-59
2022/05/28 00:44:18;;;;;;;24.87;1.23;;;;;;;15.35;83.60;95685.75;4385458;32;20200;-59
2022/05/28 00:50:06;;;;;;;0.10;0.10;;;;;;;15.18;83.29;95677.69;4362169;32;20297;-58
2022/05/28 00:52:33;;;;;;;0.60;0.60;;;;;;;15.29;84.04;95680.88;4381402;32;20180;-58
2022/05/28 00:55:03;;;;;;;1.40;0.50;;;;;;;15.29;83.53;95670.97;4350476;32;20207;-59
2022/05/28 00:57:31;;;;;;;0.30;0.30;;;;;;;15.18;84.57;95679.59;4368048;32;20184;-59
2022/05/28 00:59:57;;;;;;;8.40;0.47;;;;;;;15.31;84.51;95681.34;4381331;32;20183;-59
2022/05/28 01:02:40;;;;;;;0.20;0.20;;;;;;;15.51;84.73;95678.03;4373715;32;20245;-58
2022/05/28 01:05:32;;;;;;;1.03;0.27;;;;;;;15.39;83.86;95680.53;4367379;32;20242;-60
2022/05/28 01:08:21;;;;;;;0.23;0.23;;;;;;;15.52;82.67;95673.47;4378063;32;20188;-59
2022/05/28 01:10:57;;;;;;;0.33;0.33;;;;;;;15.32;83.80;95670.34;4365575;32;20192;-60
2022/05/28 01:13:44;;;;;;;0.20;0.20;;;;;;;15.16;83.89;95669.22;4379406;32;20196;-59
2022/05/28 01:16:28;;;;;;;0.63;0.40;;;;;;;15.02;84.56;95672.03;4375836;32;20256;-60
2022/05/28 01:19:35;;;;;;;0.60;0.60;;;;;;;15.04;85.33;95671.72;4381631;32;20306;-60
2022/05/28 01:22:44;;;;;;;0.10;0.10;;;;;;;15.25;85.31;95661.97;4375827;32;20194;-59
2022/05/28 01:25:35;;;;;;;1.80;0.60;;;;;;;15.28;84.33;95664.03;4377797;32;20187;-59
2022/05/28 01:28:07;;;;;;;0.00;0.00;;;;;;;15.21;85.45;95665.59;4377160;32;20177;-59
2022/05/28 01:30:32;;;;;;;0.67;0.47;;;;;;;15.35;85.17;95660.91;4373842;32;20219;-59
2022/05/28 01:33:01;;;;;;;0.30;0.30;;;;;;;15.21;84.32;95658.38;4379752;32;20252;-59
2022/05/28 01:35:29;;;;;;;0.47;0.47;;;;;;;15.20;85.35;95656.00;4385352;32;20188;-59
2022/05/28 01:37:57;;;;;;;0.40;0.40;;;;;;;15.21;84.00;95655.69;4383026;32;20358;-59
2022/05/28 01:40:24;;;;;;;0.10;0.10;;;;;;;14.99;84.04;95655.81;4367284;32;20208;-59
2022/05/28 01:42:54;;;;;;;0.20;0.20;;;;;;;15.06;83.71;95656.16;4367567;32;20184;-59
2022/05/28 01:45:26;;;;;;;0.10;0.10;;;;;;;15.01;85.05;95651.75;4379368;32;20188;-59
2022/05/28 01:47:54;;;;;;;0.43;0.43;;;;;;;14.95;84.31;95649.56;4360342;32;20189;-59
2022/05/28 01:50:23;;;;;;;0.50;0.40;;;;;;;15.16;85.25;95657.75;4375697;32;20188;-60
2022/05/28 01:52:50;;;;;;;0.20;0.20;;;;;;;15.17;83.32;95652.09;4376220;32;20188;-59
2022/05/28 01:55:18;;;;;;;0.17;0.17;;;;;;;15.29;83.51;95654.91;4376252;32;20261;-59
2022/05/28 01:57:45;;;;;;;3.00;1.00;;;;;;;15.19;84.10;95654.44;4370966;32;20199;-59
2022/05/28 02:00:22;;;;;;;0.43;0.43;;;;;;;15.11;83.25;95651.47;4364071;32;20196;-59
2022/05/28 02:02:48;;;;;;;0.20;0.20;;;;;;;15.13;84.28;95654.59;4378574;32;20204;-59
2022/05/28 02:05:14;;;;;;;0.47;0.47;;;;;;;15.05;84.76;95649.25;4358338;32;20232;-59
2022/05/28 02:07:44;;;;;;;0.17;0.17;;;;;;;15.14;83.37;95650.03;4376593;32;20201;-59
2022/05/28 02:10:17;;;;;;;0.63;0.63;;;;;;;14.96;82.91;95651.91;4372386;32;20189;-60
2022/05/28 02:12:53;;;;;;;0.30;0.30;;;;;;;15.15;84.08;95648.16;4365776;32;20208;-59
2022/05/28 02:15:45;;;;;;;0.30;0.30;;;;;;;15.24;84.30;95646.25;4368326;32;20204;-58
2022/05/28 02:18:32;;;;;;;1.40;0.60;;;;;;;15.08;82.76;95641.37;4378572;32;20185;-59
2022/05/28 02:21:12;;;;;;;0.43;0.43;;;;;;;15.13;82.32;95646.59;4399139;32;20188;-59
2022/05/28 02:24:00;;;;;;;0.30;0.30;;;;;;;15.09;81.07;95642.97;4376757;32;20196;-63
2022/05/28 02:26:38;;;;;;;0.80;0.80;;;;;;;15.07;80.75;95647.03;4379997;32;20271;-59
2022/05/28 02:29:05;;;;;;;0.67;0.63;;;;;;;15.10;81.83;95633.84;4377633;32;20207;-60
2022/05/28 02:31:35;;;;;;;0.43;0.43;;;;;;;15.22;79.62;95635.09;4343057;32;20230;-59
2022/05/28 02:34:02;;;;;;;0.70;0.67;;;;;;;15.18;80.16;95634.16;4368987;32;20176;-59
2022/05/28 02:36:35;;;;;;;0.10;0.10;;;;;;;15.11;79.34;95632.75;4370880;32;20192;-59
2022/05/28 02:39:01;;;;;;;0.67;0.67;;;;;;;15.21;80.66;95625.50;4372208;32;20207;-59
2022/05/28 02:41:27;;;;;;;0.67;0.63;;;;;;;15.28;81.09;95628.50;4384034;32;20229;-59
2022/05/28 02:43:54;;;;;;;0.50;0.50;;;;;;;15.20;78.99;95622.03;4368339;32;20280;-59
2022/05/28 02:46:19;;;;;;;0.17;0.17;;;;;;;15.29;79.79;95622.06;4383323;32;20188;-59
2022/05/28 02:48:45;;;;;;;0.40;0.40;;;;;;;15.15;79.55;95622.22;4338331;32;20247;-59
2022/05/28 02:51:19;;;;;;;0.40;0.40;;;;;;;15.01;79.37;95630.38;4351701;32;20196;-59
2022/05/28 02:53:46;;;;;;;0.50;0.50;;;;;;;14.95;81.16;95628.97;4384279;32;20356;-59
2022/05/28 02:56:12;;;;;;;0.60;0.60;;;;;;;14.96;80.36;95625.19;4364333;32;20236;-59
2022/05/28 02:58:40;;;;;;;0.30;0.30;;;;;;;14.95;81.61;95628.19;4354002;32;20206;-62
2022/05/28 03:01:37;;;;;;;0.70;0.70;;;;;;;14.94;81.31;95631.94;4365442;32;20219;-59
2022/05/28 03:04:06;;;;;;;0.23;0.23;;;;;;;15.02;81.95;95628.50;4381948;32;20188;-59
2022/05/28 03:06:32;;;;;;;0.83;0.50;;;;;;;15.04;81.55;95624.41;4378853;32;20338;-59
2022/05/28 03:08:59;;;;;;;0.40;0.40;;;;;;;15.06;80.31;95630.22;4363389;32;20263;-59
2022/05/28 03:11:26;;;;;;;0.30;0.30;;;;;;;15.05;81.02;95628.66;4386083;32;20231;-59
2022/05/28 03:13:52;;;;;;;1.07;1.07;;;;;;;14.91;80.83;95628.03;4388450;32;20201;-59
2022/05/28 03:16:20;;;;;;;1.40;0.60;;;;;;;14.94;81.99;95627.41;4382955;32;20256;-59
2022/05/28 03:18:45;;;;;;;0.60;0.60;;;;;;;15.02;81.65;95642.63;4371865;32;20235;-59
2022/05/28 03:21:11;;;;;;;0.60;0.60;;;;;;;14.82;79.11;95640.56;4353955;32;20211;-59
2022/05/28 03:23:37;;;;;;;0.77;0.77;;;;;;;15.03;81.04;95646.88;4379767;32;20196;-59
2022/05/28 03:26:23;;;;;;;0.10;0.10;;;;;;;15.05;79.78;95642.00;4374398;32;20208;-59
2022/05/28 03:28:50;;;;;;;0.53;0.53;;;;;;;15.19;79.40;95641.06;4387359;32;20184;-58
2022/05/28 03:31:16;;;;;;;0.93;0.93;;;;;;;15.19;79.64;95628.50;4381869;32;20296;-58
2022/05/28 03:33:46;;;;;;;0.90;0.90;;;;;;;15.10;79.89;95639.19;4393787;32;20184;-59
2022/05/28 03:36:11;;;;;;;1.60;0.83;;;;;;;15.17;80.75;95645.97;4344387;32;20193;-60
2022/05/28 03:38:37;;;;;;;1.00;0.63;;;;;;;15.18;79.85;95636.81;4373347;32;20198;-59
2022/05/28 03:41:06;;;;;;;0.23;0.23;;;;;;;15.18;79.09;95634.94;4368320;32;20215;-59
2022/05/28 03:43:31;;;;;;;0.43;0.43;;;;;;;15.21;78.65;95636.19;4377824;32;20226;-59
2022/05/28 03:45:56;;;;;;;1.43;0.77;;;;;;;14.94;75.45;95635.41;4372376;32;20197;-59
2022/05/28 03:48:23;;;;;;;0.63;0.63;;;;;;;14.91;78.42;95633.34;4384675;32;20349;-60
2022/05/28 03:50:50;;;;;;;0.50;0.50;;;;;;;14.91;76.61;95636.03;4361419;32;20260;-59
2022/05/28 03:53:17;;;;;;;0.80;0.80;;;;;;;14.93;76.47;95641.06;4375649;32;20211;-59
2022/05/28 03:55:43;;;;;;;0.70;0.70;;;;;;;14.89;78.66;95640.91;4372794;32;20196;-60
2022/05/28 03:58:09;;;;;;;0.87;0.87;;;;;;;14.93;77.30;95638.41;4374605;32;20218;-59
2022/05/28 04:00:35;;;;;;;0.80;0.80;;;;;;;14.91;77.91;95643.25;4349880;32;20192;-59
2022/05/28 04:03:03;;;;;;;0.37;0.37;;;;;;;14.83;77.76;95649.37;4355537;32;20220;-59
2022/05/28 04:05:30;;;;;;;0.80;0.80;;;;;;;14.92;77.77;95660.88;4376627;32;20195;-59
2022/05/28 04:07:55;;;;;;;0.50;0.50;;;;;;;14.72;77.75;95662.25;4370613;32;20302;-58
2022/05/28 04:10:21;;;;;;;0.83;0.83;;;;;;;14.62;77.13;95665.97;4377570;32;20185;-59
2022/05/28 04:12:48;;;;;;;1.03;1.03;;;;;;;14.71;78.38;95666.00;4382280;32;20187;-59
2022/05/28 04:15:14;;;;;;;4.23;1.03;;;;;;;14.73;75.41;95672.63;4377994;32;20227;-58
2022/05/28 04:17:41;;;;;;;0.93;0.93;;;;;;;14.73;76.12;95674.50;4366275;32;20209;-60
2022/05/28 04:20:13;;;;;;;0.73;0.73;;;;;;;14.68;75.18;95672.75;4378011;32;20196;-60
2022/05/28 04:22:38;;;;;;;0.70;0.70;;;;;;;14.70;76.86;95667.88;4347294;32;20181;-59
2022/05/28 04:25:05;;;;;;;3.17;1.10;;;;;;;14.71;78.39;95666.78;4379511;32;20192;-59
2022/05/28 04:27:30;;;;;;;0.83;0.77;;;;;;;14.58;76.10;95665.00;4390138;32;20292;-59
2022/05/28 04:29:59;;;;;;;1.10;1.10;;;;;;;14.97;77.09;95663.38;4377944;32;20200;-59
2022/05/28 04:32:26;;;;;;;1.10;1.00;;;;;;;14.75;71.94;95675.75;4359372;32;20208;-59
2022/05/28 04:34:54;;;;;;;0.50;0.50;;;;;;;14.65;72.29;95672.59;4366956;32;20214;-59
2022/05/28 04:37:21;;;;;;;2.20;0.70;;;;;;;14.70;75.64;95672.44;4378453;32;20229;-59
2022/05/28 04:39:48;;;;;;;0.47;0.47;;;;;;;15.03;74.67;95672.81;4378217;32;20207;-58
2022/05/28 04:42:14;;;;;;;0.50;0.50;;;;;;;14.78;73.25;95682.34;4342176;32;20223;-59
2022/05/28 04:44:41;;;;;;;0.67;0.67;;;;;;;14.78;73.47;95682.34;4361837;32;20193;-58
2022/05/28 04:47:07;;;;;;;1.03;0.70;;;;;;;14.73;74.24;95685.97;4378833;32;20203;-59
2022/05/28 04:49:33;;;;;;;0.87;0.80;;;;;;;14.76;75.49;95681.88;4389036;32;20192;-59
2022/05/28 04:52:00;;;;;;;1.07;0.50;;;;;;;14.75;73.75;95683.78;4369686;32;20219;-59
2022/05/28 04:54:27;;;;;;;1.40;0.87;;;;;;;14.75;75.30;95689.13;4368829;32;20260;-60
2022/05/28 04:56:55;;;;;;;0.60;0.60;;;;;;;14.62;75.29;95689.22;4383348;32;20176;-58
2022/05/28 04:59:22;;;;;;;0.83;0.83;;;;;;;14.75;74.39;95683.78;4375477;32;20181;-59
2022/05/28 05:01:49;;;;;;;0.90;0.90;;;;;;;14.81;74.33;95680.94;4364155;32;20235;-59
2022/05/28 05:04:15;;;;;;;1.50;0.67;;;;;;;14.59;72.79;95689.81;4370169;32;20205;-59
2022/05/28 05:06:42;;;;;;;0.90;0.90;;;;;;;14.65;75.86;95677.91;4367848;32;20189;-59
2022/05/28 05:09:09;;;;;;;0.63;0.63;;;;;;;14.63;74.31;95688.13;4364886;32;20259;-59
2022/05/28 05:11:34;;;;;;;0.77;0.60;;;;;;;14.62;74.32;95683.88;4367899;32;20200;-59
2022/05/28 05:14:01;;;;;;;0.73;0.73;;;;;;;14.53;72.85;95683.06;4374974;32;20207;-58
2022/05/28 05:16:27;;;;;;;0.80;0.80;;;;;;;14.55;72.34;95689.66;4380552;32;20188;-58
2022/05/28 05:18:53;;;;;;;3.63;1.03;;;;;;;14.42;70.12;95698.56;4373428;32;20181;-59
2022/05/28 05:21:18;;;;;;;3.03;0.97;;;;;;;14.21;69.44;95698.28;4368712;32;20181;-58
2022/05/28 05:23:45;;;;;;;0.60;0.60;;;;;;;14.04;68.79;95700.88;4378621;32;20184;-59
2022/05/28 05:26:17;;;;;;;0.73;0.73;;;;;;;14.03;69.75;95702.75;4366999;32;20207;-58
2022/05/28 05:28:44;;;;;;;0.70;0.70;;;;;;;13.77;72.45;95702.56;4366781;32;20203;-58
2022/05/28 05:31:10;;;;;;;0.53;0.53;;;;;;;13.75;70.75;95699.44;4367004;32;20193;-58
2022/05/28 05:33:35;;;;;;;0.57;0.57;;;;;;;13.84;66.34;95694.16;4395960;32;20243;-59
2022/05/28 05:36:04;;;;;;;0.40;0.40;;;;;;;13.90;66.06;95697.50;4375995;32;20199;-59
2022/05/28 05:38:30;;;;;;;0.40;0.40;;;;;;;13.70;62.02;95699.56;4378146;32;20210;-59
2022/05/28 05:40:56;;;;;;;2.33;1.23;;;;;;;13.97;70.90;95705.84;4366490;32;20267;-59
2022/05/28 05:43:21;;;;;;;2.80;0.93;;;;;;;13.91;67.29;95712.41;4382789;32;20181;-58
2022/05/28 05:45:59;;;;;;;0.70;0.70;;;;;;;13.91;62.91;95709.75;4376668;32;20198;-58
2022/05/28 05:48:27;;;;;;;3.37;0.90;;;;;;;13.79;64.23;95714.81;4368857;32;23186;-59
2022/05/28 05:50:52;;;;;;;0.50;0.50;;;;;;;13.82;65.15;95716.87;4370102;32;20225;-58
2022/05/28 05:53:19;;;;;;;0.27;0.27;;;;;;;13.99;66.67;95714.31;4361589;32;20199;-59
2022/05/28 05:55:46;;;;;;;1.43;1.13;;;;;;;13.89;67.64;95707.38;4343533;32;20176;-59
2022/05/28 05:58:16;;;;;;;0.60;0.60;;;;;;;13.83;63.06;95707.78;4367170;32;20177;-59
2022/05/28 06:00:44;;;;;;;0.77;0.67;;;;;;;13.99;67.69;95704.44;4382186;32;20188;-59
2022/05/28 06:03:18;;;;;;;0.60;0.60;;;;;;;13.97;67.38;95705.84;4380862;32;20177;-60
2022/05/28 06:05:44;;;;;;;2.67;1.73;;;;;;;14.13;65.42;95706.25;4375656;32;20192;-60
2022/05/28 06:08:11;;;;;;;2.53;0.67;;;;;;;14.23;68.43;95709.44;4366621;32;20190;-59
2022/05/28 06:10:36;;;;;;;1.17;0.70;;;;;;;14.41;67.19;95710.34;4368490;32;20200;-58
2022/05/28 06:13:03;;;;;;;1.43;0.70;;;;;;;14.38;67.59;95698.34;4388695;32;20189;-59
2022/05/28 06:15:31;;;;;;;0.50;0.50;;;;;;;14.42;65.60;95702.03;4386101;32;20192;-59
2022/05/28 06:17:57;;;;;;;1.57;0.80;;;;;;;14.32;68.04;95701.50;4375769;32;20286;-59
2022/05/28 06:20:22;;;;;;;7.37;0.73;;;;;;;14.35;67.96;95696.31;4369372;32;20193;-58
2022/05/28 06:22:51;;;;;;;5.23;0.83;;;;;;;14.41;62.57;95694.31;4365356;32;20195;-58
2022/05/28 06:25:16;;;;;;;1.10;0.70;;;;;;;14.39;63.29;95691.94;4360848;32;20281;-60
2022/05/28 06:27:46;;;;;;;1.33;0.97;;;;;;;14.55;64.45;95699.56;4348479;32;20216;-58
2022/05/28 06:30:13;;;;;;;6.60;0.83;;;;;;;14.55;62.63;95697.66;4360364;32;20189;-58
2022/05/28 06:32:40;;;;;;;0.90;0.70;;;;;;;14.73;64.59;95696.66;4379612;32;20234;-60
2022/05/28 06:35:09;;;;;;;1.67;0.77;;;;;;;14.64;59.38;95703.03;4378430;32;20223;-60
2022/05/28 06:37:36;;;;;;;0.63;0.63;;;;;;;14.55;61.19;95705.69;4383998;32;20185;-59
2022/05/28 06:40:03;;;;;;;2.23;1.03;;;;;;;14.52;59.48;95703.66;4353425;32;20189;-58
2022/05/28 06:42:29;;;;;;;0.33;0.33;;;;;;;14.51;56.75;95704.75;4355065;32;20224;-59
2022/05/28 06:44:55;;;;;;;0.77;0.40;;;;;;;14.38;57.20;95698.34;4370537;32;20204;-59
2022/05/28 06:47:25;;;;;;;0.27;0.27;;;;;;;14.38;60.49;95697.56;4390513;32;20294;-58
2022/05/28 06:52:36;;;;;;;7.53;1.13;;;;;;;14.42;58.92;95688.69;4384189;32;20206;-59
2022/05/28 06:55:03;;;;;;;0.30;0.30;;;;;;;14.35;57.18;95685.63;4367490;32;20191;-60
2022/05/28 06:57:30;;;;;;;1.43;1.33;;;;;;;14.44;59.21;95685.69;4352072;32;20305;-59
2022/05/28 06:59:59;;;;;;;0.43;0.43;;;;;;;14.44;60.76;95678.47;4375611;32;20331;-59
2022/05/28 07:02:25;;;;;;;0.77;0.77;;;;;;;14.26;58.97;95687.50;4382817;32;20184;-59
2022/05/28 07:04:51;;;;;;;0.30;0.30;;;;;;;14.48;65.70;95691.22;4351402;32;20207;-58
2022/05/28 07:07:18;;;;;;;0.93;0.63;;;;;;;14.60;60.09;95686.06;4370814;32;20200;-61
2022/05/28 07:09:43;;;;;;;2.53;1.00;;;;;;;14.60;61.29;95696.75;4382917;32;20228;-60
2022/05/28 07:12:09;;;;;;;0.80;0.80;;;;;;;14.59;59.87;95701.31;4379175;32;20227;-60
2022/05/28 07:14:35;;;;;;;1.60;0.63;;;;;;;14.32;58.94;95694.28;4390631;32;20201;-60
2022/05/28 07:17:00;;;;;;;1.27;0.97;;;;;;;14.01;59.55;95701.47;4385405;32;20188;-60
2022/05/28 07:19:26;;;;;;;0.97;0.97;;;;;;;14.05;63.31;95702.44;4381737;32;20348;-60
2022/05/28 07:21:52;;;;;;;2.00;1.17;;;;;;;14.11;61.01;95703.91;4390473;32;20196;-61
2022/05/28 07:24:17;;;;;;;3.80;0.90;;;;;;;13.95;60.87;95705.34;4374067;32;20183;-61
2022/05/28 07:26:43;;;;;;;1.40;1.30;;;;;;;14.26;61.85;95706.16;4390650;32;20223;-61
2022/05/28 07:29:09;;;;;;;1.03;1.03;;;;;;;14.05;61.65;95705.09;4369280;32;20215;-60
2022/05/28 07:31:36;;;;;;;0.50;0.50;;;;;;;13.67;62.98;95713.50;4350011;32;20232;-60
2022/05/28 07:34:01;;;;;;;3.60;1.23;;;;;;;13.64;60.81;95702.66;4373321;32;20231;-60
2022/05/28 07:36:27;;;;;;;0.93;0.70;;;;;;;13.69;63.04;95698.00;4390014;32;20283;-61
2022/05/28 07:38:53;;;;;;;7.87;1.77;;;;;;;13.72;62.06;95704.56;4370110;32;20291;-61
2022/05/28 07:41:31;;;;;;;1.70;1.30;;;;;;;14.01;62.88;95686.25;4352935;32;20204;-61
2022/05/28 07:43:57;;;;;;;1.73;1.37;;;;;;;14.36;62.61;95683.75;4369093;32;20263;-61
2022/05/28 07:46:29;;;;;;;1.80;1.63;;;;;;;14.38;60.81;95690.34;4353288;32;20258;-61
2022/05/28 07:49:00;;;;;;;0.67;0.67;;;;;;;14.38;60.28;95682.34;4374528;32;20227;-60
2022/05/28 07:51:26;;;;;;;0.77;0.77;;;;;;;14.47;62.33;95694.97;4383198;32;20184;-61
2022/05/28 07:53:52;;;;;;;9.90;1.87;;;;;;;14.38;60.75;95698.34;4381874;32;20188;-60
2022/05/28 07:56:17;;;;;;;0.77;0.77;;;;;;;14.35;60.46;95698.97;4370716;32;20200;-60
2022/05/28 07:58:43;;;;;;;0.57;0.57;;;;;;;14.38;60.98;95700.25;4378952;32;20241;-60
2022/05/28 08:01:18;;;;;;;0.57;0.57;;;;;;;14.13;60.27;95704.38;4345693;32;20185;-60
2022/05/28 08:03:44;;;;;;;0.80;0.80;;;;;;;14.31;57.31;95705.25;4378997;32;20226;-60
2022/05/28 08:06:12;;;;;;;0.63;0.63;;;;;;;14.64;59.78;95700.38;4386870;32;20240;-61
2022/05/28 08:08:41;;;;;;;9.80;1.40;;;;;;;14.62;55.46;95691.88;4385695;32;20192;-60
2022/05/28 08:11:11;;;;;;;1.07;0.57;;;;;;;14.63;54.98;95693.47;4380546;32;20184;-62
2022/05/28 08:13:37;;;;;;;0.30;0.30;;;;;;;14.21;53.32;95690.28;4362022;32;20196;-61
2022/05/28 08:16:09;;;;;;;4.73;1.73;;;;;;;14.41;53.24;95699.66;4377943;32;20197;-61
2022/05/28 08:18:37;;;;;;;0.67;0.67;;;;;;;14.16;54.32;95698.41;4368015;32;20189;-61
2022/05/28 08:23:51;;;;;;;0.70;0.70;;;;;;;14.41;52.82;95705.00;4349045;32;20195;-61
2022/05/28 08:26:27;;;;;;;0.73;0.73;;;;;;;14.41;53.00;95705.78;4380413;32;20243;-60
2022/05/28 08:28:54;;;;;;;1.00;0.90;;;;;;;14.55;57.23;95711.00;4381521;32;20193;-60
2022/05/28 08:31:20;;;;;;;1.00;0.80;;;;;;;14.59;55.19;95717.31;4362553;32;20240;-60
2022/05/28 08:33:46;;;;;;;1.50;0.70;;;;;;;14.16;53.06;95713.62;4356877;32;20202;-60
2022/05/28 08:36:14;;;;;;;1.67;0.80;;;;;;;14.28;56.22;95703.19;4357306;32;20189;-60
2022/05/28 08:38:42;;;;;;;0.53;0.53;;;;;;;14.29;56.89;95707.44;4363368;32;20189;-61
2022/05/28 08:41:24;;;;;;;1.23;1.20;;;;;;;14.48;58.98;95704.56;4369850;32;20189;-61
2022/05/28 08:44:39;;;;;;;0.67;0.67;;;;;;;14.71;56.60;95695.37;4369673;32;20245;-61
2022/05/28 08:47:27;;;;;;;0.60;0.60;;;;;;;14.75;52.87;95691.00;4345120;32;20193;-61
2022/05/28 08:49:57;;;;;;;0.83;0.83;;;;;;;14.89;53.73;95688.97;4357719;32;20229;-60
2022/05/28 08:52:33;;;;;;;0.67;0.67;;;;;;;15.02;52.60;95696.06;4377847;32;20206;-61
2022/05/28 08:55:06;;;;;;;1.13;0.77;;;;;;;14.95;50.28;95687.75;4372365;32;20206;-61
2022/05/28 08:57:58;;;;;;;0.60;0.60;;;;;;;14.83;53.98;95700.91;4358338;32;20271;-61
2022/05/28 09:00:51;;;;;;;0.40;0.40;;;;;;;14.75;52.66;95709.69;4384963;32;20233;-60
2022/05/28 09:03:30;;;;;;;0.60;0.40;;;;;;;14.82;53.31;95696.66;4377089;32;20216;-60
2022/05/28 09:06:12;;;;;;;0.97;0.97;;;;;;;15.01;52.82;95691.81;4373014;32;20200;-61
2022/05/28 09:08:44;;;;;;;0.40;0.40;;;;;;;15.02;51.47;95701.41;4361094;32;20234;-60
2022/05/28 09:11:13;;;;;;;0.30;0.30;;;;;;;14.94;48.94;95696.06;4377231;32;20188;-61
2022/05/28 09:13:48;;;;;;;0.97;0.40;;;;;;;14.94;47.45;95702.22;4376841;32;20203;-60
2022/05/28 09:16:36;;;;;;;0.63;0.63;;;;;;;14.92;49.67;95699.06;4383296;32;20196;-60
2022/05/28 09:19:05;;;;;;;2.20;0.70;;;;;;;14.87;48.03;95703.75;4362308;32;20234;-59
2022/05/28 09:21:32;;;;;;;0.20;0.20;;;;;;;14.72;46.14;95710.31;4370455;32;20184;-61
2022/05/28 09:24:25;;;;;;;0.77;0.43;;;;;;;14.79;45.38;95700.72;4370431;32;20199;-61
2022/05/28 09:27:18;;;;;;;0.20;0.20;;;;;;;14.82;44.54;95709.22;4380508;32;20241;-61
2022/05/28 09:29:54;;;;;;;0.40;0.40;;;;;;;14.88;45.02;95699.97;4376867;32;20189;-61
2022/05/28 09:32:46;;;;;;;0.30;0.30;;;;;;;15.05;44.67;95687.44;4387650;32;20230;-60
2022/05/28 09:35:56;;;;;;;0.23;0.23;;;;;;;15.13;44.43;95700.03;4375560;32;20184;-60
2022/05/28 09:39:07;;;;;;;1.20;0.30;;;;;;;15.00;44.08;95695.59;4376344;32;20207;-60
2022/05/28 09:42:15;;;;;;;0.50;0.50;;;;;;;15.04;43.76;95688.53;4368934;32;20201;-61
2022/05/28 09:44:59;;;;;;;0.37;0.37;;;;;;;15.13;45.03;95692.03;4383534;32;20189;-62
2022/05/28 09:47:26;;;;;;;0.30;0.30;;;;;;;15.11;45.73;95685.41;4373747;32;20180;-60
2022/05/28 09:49:57;;;;;;;0.37;0.37;;;;;;;15.35;47.28;95682.28;4376098;32;20207;-60
2022/05/28 09:54:16;;;;;;;1.50;0.63;;;;;;;15.62;46.34;95684.66;4361235;32;20193;-60
2022/05/28 09:55:21;;;;;;;0.10;0.10;;;;;;;15.68;44.21;95685.28;4380596;32;20203;-60
2022/05/28 09:58:03;;;;;;;0.40;0.40;;;;;;;15.44;44.08;95686.53;4367885;32;20322;-60
2022/05/28 10:00:28;;;;;;;0.30;0.30;;;;;;;15.56;49.15;95682.47;4375026;32;20271;-60
2022/05/28 10:05:58;;;;;;;2.57;0.67;;;;;;;15.94;47.12;95682.56;4370684;32;20215;-60
2022/05/28 10:08:31;;;;;;;0.17;0.17;;;;;;;15.74;47.02;95682.13;4333352;32;20189;-59
2022/05/28 10:11:08;;;;;;;0.20;0.20;;;;;;;15.80;47.29;95688.09;4365547;32;22156;-59
2022/05/28 10:13:52;;;;;;;1.43;0.70;;;;;;;15.77;44.85;95670.03;4331948;32;20222;-60
2022/05/28 10:16:25;;;;;;;0.53;0.53;;;;;;;15.73;47.04;95672.53;4366555;32;20289;-60
2022/05/28 10:18:58;;;;;;;0.40;0.40;;;;;;;15.92;44.51;95671.41;4381588;32;20202;-60
2022/05/28 10:21:37;;;;;;;0.23;0.23;;;;;;;15.79;45.44;95675.84;4397367;32;20176;-60
2022/05/28 10:24:16;;;;;;;0.47;0.47;;;;;;;15.84;48.01;95675.66;4379470;32;20204;-60
2022/05/28 10:26:50;;;;;;;1.13;0.77;;;;;;;15.89;51.36;95670.16;4358839;32;20211;-59
2022/05/28 10:29:49;;;;;;;0.37;0.37;;;;;;;15.99;48.54;95661.00;4356244;32;20231;-58
2022/05/28 10:32:26;;;;;;;0.60;0.60;;;;;;;15.92;48.55;95671.41;4388182;32;20196;-59
2022/05/28 10:35:06;;;;;;;0.10;0.10;;;;;;;15.96;48.02;95667.00;4382977;32;20192;-59
2022/05/28 10:37:34;;;;;;;0.37;0.37;;;;;;;16.01;45.32;95670.25;4377771;32;20188;-61
2022/05/28 10:40:22;;;;;;;0.47;0.47;;;;;;;15.78;44.64;95672.37;4331397;32;20201;-59
2022/05/28 10:42:51;;;;;;;0.73;0.73;;;;;;;15.66;46.03;95658.84;4336660;32;20344;-59
2022/05/28 10:45:34;;;;;;;1.17;0.67;;;;;;;15.62;47.38;95663.25;4373084;32;20237;-59
2022/05/28 10:48:33;;;;;;;0.37;0.37;;;;;;;15.53;48.19;95665.13;4367924;32;20204;-60
2022/05/28 10:52:01;;;;;;;1.60;0.70;;;;;;;15.68;47.46;95667.34;4352793;32;20287;-60
2022/05/28 10:54:59;;;;;;;1.40;1.30;;;;;;;16.15;49.19;95664.72;4324277;32;20263;-59
2022/05/28 10:57:52;;;;;;;0.63;0.63;;;;;;;16.33;47.55;95665.47;4323353;32;20186;-59
2022/05/28 11:00:35;;;;;;;0.00;0.00;;;;;;;16.00;46.22;95659.91;4319641;32;20267;-59
2022/05/28 11:03:30;;;;;;;0.30;0.30;;;;;;;16.16;48.92;95655.59;4321236;32;20194;-59
2022/05/28 11:06:33;;;;;;;0.37;0.37;;;;;;;16.41;46.83;95652.03;4295883;33;20194;-60
2022/05/28 11:09:28;;;;;;;1.03;0.73;;;;;;;16.59;46.58;95657.31;4342455;32;20182;-60
2022/05/28 11:12:21;;;;;;;0.20;0.10;;;;;;;16.47;49.46;95649.94;4361470;32;20203;-60
2022/05/28 11:14:57;;;;;;;0.47;0.40;;;;;;;16.49;45.80;95643.16;4356756;32;20250;-60
2022/05/28 11:17:45;;;;;;;0.50;0.33;;;;;;;16.75;46.64;95648.44;4363498;32;20221;-60
2022/05/28 11:20:19;;;;;;;0.40;0.40;;;;;;;16.77;47.94;95643.53;4379218;32;20193;-59
2022/05/28 11:23:03;;;;;;;0.20;0.20;;;;;;;16.57;49.13;95635.41;4368097;32;20184;-59
2022/05/28 11:25:57;;;;;;;0.20;0.20;;;;;;;16.52;46.21;95635.59;4385256;32;20424;-59
2022/05/28 11:28:52;;;;;;;0.00;0.00;;;;;;;16.49;46.82;95632.44;4379706;32;20264;-60
2022/05/28 11:31:44;;;;;;;0.17;0.17;;;;;;;16.57;45.62;95635.41;4381772;32;20228;-60
2022/05/28 11:34:34;;;;;;;0.10;0.10;;;;;;;16.59;44.89;95619.81;4333592;32;20204;-60
2022/05/28 11:37:48;;;;;;;0.27;0.27;;;;;;;16.78;44.47;95614.84;4371852;32;20294;-60
2022/05/28 11:40:32;;;;;;;0.07;0.07;;;;;;;17.05;44.81;95622.38;4346873;32;20192;-60
2022/05/28 11:43:07;;;;;;;0.30;0.30;;;;;;;17.24;43.93;95621.16;4391400;32;20210;-60
2022/05/28 11:45:55;;;;;;;0.10;0.10;;;;;;;17.16;42.36;95612.84;4383034;32;20257;-59
2022/05/28 11:51:44;;;;;;;0.00;0.00;;;;;;;16.94;45.09;95621.19;4358478;32;20226;-60
2022/05/28 11:54:25;;;;;;;0.50;0.50;;;;;;;16.77;44.07;95613.28;4374123;32;20208;-60
2022/05/28 11:56:57;;;;;;;0.07;0.07;;;;;;;17.06;43.99;95615.09;4379740;32;20189;-60
2022/05/28 11:59:27;;;;;;;0.23;0.23;;;;;;;17.01;40.80;95601.91;4375410;32;20238;-60
2022/05/28 12:02:00;;;;;;;0.37;0.37;;;;;;;17.16;41.88;95599.41;4371691;32;20188;-59
2022/05/28 12:04:32;;;;;;;0.00;0.00;;;;;;;17.21;41.00;95594.97;4358791;32;20201;-61
2022/05/28 12:07:09;;;;;;;0.20;0.20;;;;;;;17.16;40.98;95595.97;4360259;32;20279;-59
2022/05/28 12:09:43;;;;;;;0.10;0.10;;;;;;;17.11;43.43;95601.50;4371488;32;20215;-60
2022/05/28 12:12:35;;;;;;;0.40;0.40;;;;;;;17.20;43.52;95591.50;4377540;32;20204;-60
2022/05/28 12:15:24;;;;;;;0.20;0.20;;;;;;;17.05;42.86;95589.41;4376885;32;20200;-60